sensor_id;sensor_type;location;lat;lon;timestamp;pressure;altitude;pressure_sealevel;temperature;humidity
77011;BME280;65945;53.148;17.956;2023-06-24T00:00:56;101425.02;;;17.28;66.89
77011;BME280;65945;53.148;17.956;2023-06-24T00:03:35;101430.88;;;17.27;67.00
77011;BME280;65945;53.148;17.956;2023-06-24T00:06:03;101429.48;;;17.25;67.19
77011;BME280;65945;53.148;17.956;2023-06-24T00:08:30;101428.63;;;17.23;67.24
77011;BME280;65945;53.148;17.956;2023-06-24T00:11:03;101427.30;;;17.22;67.30
77011;BME280;65945;53.148;17.956;2023-06-24T00:13:30;101426.60;;;17.21;67.51
77011;BME280;65945;53.148;17.956;2023-06-24T00:15:56;101423.34;;;17.19;67.47
77011;BME280;65945;53.148;17.956;2023-06-24T00:18:23;101422.09;;;17.18;67.57
77011;BME280;65945;53.148;17.956;2023-06-24T00:20:51;101423.48;;;17.18;67.56
77011;BME280;65945;53.148;17.956;2023-06-24T00:23:22;101423.10;;;17.17;67.65
77011;BME280;65945;53.148;17.956;2023-06-24T00:25:53;101427.20;;;17.18;67.72
77011;BME280;65945;53.148;17.956;2023-06-24T00:28:21;101425.56;;;17.18;67.88
77011;BME280;65945;53.148;17.956;2023-06-24T00:30:48;101423.17;;;17.18;67.97
77011;BME280;65945;53.148;17.956;2023-06-24T00:33:15;101424.34;;;17.18;68.06
77011;BME280;65945;53.148;17.956;2023-06-24T00:35:43;101428.90;;;17.19;67.82
77011;BME280;65945;53.148;17.956;2023-06-24T00:38:09;101430.67;;;17.19;67.93
77011;BME280;65945;53.148;17.956;2023-06-24T00:40:37;101426.35;;;17.20;68.24
77011;BME280;65945;53.148;17.956;2023-06-24T00:43:05;101429.12;;;17.19;68.03
77011;BME280;65945;53.148;17.956;2023-06-24T00:45:34;101431.30;;;17.20;68.29
77011;BME280;65945;53.148;17.956;2023-06-24T00:48:00;101432.30;;;17.20;68.22
77011;BME280;65945;53.148;17.956;2023-06-24T00:50:29;101433.30;;;17.20;68.58
77011;BME280;65945;53.148;17.956;2023-06-24T00:52:55;101438.72;;;17.20;68.53
77011;BME280;65945;53.148;17.956;2023-06-24T00:55:22;101435.16;;;17.20;68.54
77011;BME280;65945;53.148;17.956;2023-06-24T00:57:51;101435.15;;;17.19;68.53
77011;BME280;65945;53.148;17.956;2023-06-24T01:00:19;101440.95;;;17.17;68.42
77011;BME280;65945;53.148;17.956;2023-06-24T01:02:47;101437.75;;;17.16;68.44
77011;BME280;65945;53.148;17.956;2023-06-24T01:05:14;101440.60;;;17.15;68.43
77011;BME280;65945;53.148;17.956;2023-06-24T01:07:42;101440.05;;;17.12;68.49
77011;BME280;65945;53.148;17.956;2023-06-24T01:10:10;101437.64;;;17.10;68.55
77011;BME280;65945;53.148;17.956;2023-06-24T01:12:40;101436.02;;;17.09;68.74
77011;BME280;65945;53.148;17.956;2023-06-24T01:15:09;101436.52;;;17.07;68.65
77011;BME280;65945;53.148;17.956;2023-06-24T01:17:43;101438.91;;;17.06;68.56
77011;BME280;65945;53.148;17.956;2023-06-24T01:20:20;101439.30;;;17.04;68.56
77011;BME280;65945;53.148;17.956;2023-06-24T01:33:50;101457.73;;;17.01;69.67
77011;BME280;65945;53.148;17.956;2023-06-24T01:36:20;101458.42;;;17.00;69.54
77011;BME280;65945;53.148;17.956;2023-06-24T01:38:57;101454.99;;;16.99;69.64
77011;BME280;65945;53.148;17.956;2023-06-24T01:41:29;101457.39;;;16.98;69.58
77011;BME280;65945;53.148;17.956;2023-06-24T01:43:59;101460.85;;;16.96;69.49
77011;BME280;65945;53.148;17.956;2023-06-24T01:46:28;101461.44;;;16.94;69.59
77011;BME280;65945;53.148;17.956;2023-06-24T01:48:59;101464.06;;;16.92;69.70
77011;BME280;65945;53.148;17.956;2023-06-24T01:51:28;101463.58;;;16.90;69.71
77011;BME280;65945;53.148;17.956;2023-06-24T01:54:02;101464.64;;;16.88;70.01
77011;BME280;65945;53.148;17.956;2023-06-24T01:56:30;101462.76;;;16.86;69.95
77011;BME280;65945;53.148;17.956;2023-06-24T01:59:00;101463.74;;;16.84;70.08
77011;BME280;65945;53.148;17.956;2023-06-24T02:01:28;101459.95;;;16.82;70.18
77011;BME280;65945;53.148;17.956;2023-06-24T02:03:58;101458.09;;;16.80;70.35
77011;BME280;65945;53.148;17.956;2023-06-24T02:06:28;101458.23;;;16.79;70.36
77011;BME280;65945;53.148;17.956;2023-06-24T02:08:58;101457.30;;;16.78;70.45
77011;BME280;65945;53.148;17.956;2023-06-24T02:11:28;101462.84;;;16.77;70.49
77011;BME280;65945;53.148;17.956;2023-06-24T02:13:59;101461.59;;;16.76;70.68
77011;BME280;65945;53.148;17.956;2023-06-24T02:16:28;101460.83;;;16.76;70.70
77011;BME280;65945;53.148;17.956;2023-06-24T02:18:56;101461.20;;;16.75;70.70
77011;BME280;65945;53.148;17.956;2023-06-24T02:21:25;101460.95;;;16.74;71.14
77011;BME280;65945;53.148;17.956;2023-06-24T02:23:53;101463.25;;;16.73;71.40
77011;BME280;65945;53.148;17.956;2023-06-24T02:26:20;101462.46;;;16.70;71.49
77011;BME280;65945;53.148;17.956;2023-06-24T02:28:49;101462.12;;;16.66;71.72
77011;BME280;65945;53.148;17.956;2023-06-24T02:31:16;101463.94;;;16.64;71.92
77011;BME280;65945;53.148;17.956;2023-06-24T02:33:43;101469.07;;;16.59;72.18
77011;BME280;65945;53.148;17.956;2023-06-24T02:36:09;101472.20;;;16.56;72.34
77011;BME280;65945;53.148;17.956;2023-06-24T02:38:37;101472.79;;;16.53;72.44
77011;BME280;65945;53.148;17.956;2023-06-24T02:41:04;101471.59;;;16.50;72.45
77011;BME280;65945;53.148;17.956;2023-06-24T02:43:32;101468.10;;;16.48;72.53
77011;BME280;65945;53.148;17.956;2023-06-24T02:46:01;101466.34;;;16.44;72.50
77011;BME280;65945;53.148;17.956;2023-06-24T02:48:30;101466.01;;;16.42;72.55
77011;BME280;65945;53.148;17.956;2023-06-24T02:50:59;101470.23;;;16.41;72.74
77011;BME280;65945;53.148;17.956;2023-06-24T02:53:26;101469.75;;;16.39;72.69
77011;BME280;65945;53.148;17.956;2023-06-24T02:55:55;101466.12;;;16.39;72.67
77011;BME280;65945;53.148;17.956;2023-06-24T02:58:23;101468.12;;;16.38;72.43
77011;BME280;65945;53.148;17.956;2023-06-24T03:01:01;101469.59;;;16.38;72.51
77011;BME280;65945;53.148;17.956;2023-06-24T03:03:32;101469.11;;;16.37;72.69
77011;BME280;65945;53.148;17.956;2023-06-24T03:05:59;101470.48;;;16.36;72.55
77011;BME280;65945;53.148;17.956;2023-06-24T03:08:29;101471.71;;;16.36;72.64
77011;BME280;65945;53.148;17.956;2023-06-24T03:10:57;101472.72;;;16.35;72.69
77011;BME280;65945;53.148;17.956;2023-06-24T03:13:26;101481.30;;;16.35;72.46
77011;BME280;65945;53.148;17.956;2023-06-24T03:16:08;101485.37;;;16.35;72.60
77011;BME280;65945;53.148;17.956;2023-06-24T03:18:42;101491.63;;;16.36;72.61
77011;BME280;65945;53.148;17.956;2023-06-24T03:21:09;101497.28;;;16.37;72.63
77011;BME280;65945;53.148;17.956;2023-06-24T03:23:37;101498.75;;;16.38;72.72
77011;BME280;65945;53.148;17.956;2023-06-24T03:26:03;101495.66;;;16.38;72.87
77011;BME280;65945;53.148;17.956;2023-06-24T03:28:32;101494.58;;;16.38;72.66
77011;BME280;65945;53.148;17.956;2023-06-24T03:31:07;101490.25;;;16.37;72.82
77011;BME280;65945;53.148;17.956;2023-06-24T03:33:34;101489.78;;;16.37;72.86
77011;BME280;65945;53.148;17.956;2023-06-24T03:36:02;101490.33;;;16.36;72.90
77011;BME280;65945;53.148;17.956;2023-06-24T03:38:30;101500.11;;;16.36;72.94
77011;BME280;65945;53.148;17.956;2023-06-24T03:40:58;101497.94;;;16.36;73.33
77011;BME280;65945;53.148;17.956;2023-06-24T03:43:25;101506.15;;;16.37;73.27
77011;BME280;65945;53.148;17.956;2023-06-24T03:45:52;101506.90;;;16.36;73.40
77011;BME280;65945;53.148;17.956;2023-06-24T03:48:18;101512.83;;;16.35;73.64
77011;BME280;65945;53.148;17.956;2023-06-24T03:50:45;101511.48;;;16.32;73.86
77011;BME280;65945;53.148;17.956;2023-06-24T03:53:11;101517.73;;;16.32;73.96
77011;BME280;65945;53.148;17.956;2023-06-24T03:55:38;101524.92;;;16.33;74.37
77011;BME280;65945;53.148;17.956;2023-06-24T03:58:05;101529.70;;;16.32;74.46
77011;BME280;65945;53.148;17.956;2023-06-24T04:00:33;101538.70;;;16.30;74.61
77011;BME280;65945;53.148;17.956;2023-06-24T04:02:59;101540.06;;;16.29;74.86
77011;BME280;65945;53.148;17.956;2023-06-24T04:05:28;101545.87;;;16.30;74.96
77011;BME280;65945;53.148;17.956;2023-06-24T04:07:55;101557.27;;;16.29;74.98
77011;BME280;65945;53.148;17.956;2023-06-24T04:10:22;101560.41;;;16.32;75.09
77011;BME280;65945;53.148;17.956;2023-06-24T04:12:48;101562.59;;;16.36;75.01
77011;BME280;65945;53.148;17.956;2023-06-24T04:15:15;101566.42;;;16.38;75.11
77011;BME280;65945;53.148;17.956;2023-06-24T04:17:42;101562.22;;;16.42;74.98
77011;BME280;65945;53.148;17.956;2023-06-24T04:20:09;101566.30;;;16.46;75.00
77011;BME280;65945;53.148;17.956;2023-06-24T04:22:37;101566.97;;;16.49;75.09
77011;BME280;65945;53.148;17.956;2023-06-24T04:25:05;101564.77;;;16.53;74.94
77011;BME280;65945;53.148;17.956;2023-06-24T04:27:33;101563.89;;;16.57;74.73
77011;BME280;65945;53.148;17.956;2023-06-24T04:30:01;101562.45;;;16.59;74.80
77011;BME280;65945;53.148;17.956;2023-06-24T04:32:29;101564.57;;;16.61;74.91
77011;BME280;65945;53.148;17.956;2023-06-24T04:34:58;101564.82;;;16.63;74.59
77011;BME280;65945;53.148;17.956;2023-06-24T04:37:26;101564.80;;;16.68;74.72
77011;BME280;65945;53.148;17.956;2023-06-24T04:39:53;101557.81;;;16.71;74.89
77011;BME280;65945;53.148;17.956;2023-06-24T04:42:20;101551.98;;;16.74;74.74
77011;BME280;65945;53.148;17.956;2023-06-24T04:44:46;101548.88;;;16.79;74.48
77011;BME280;65945;53.148;17.956;2023-06-24T04:47:18;101547.69;;;16.85;74.49
77011;BME280;65945;53.148;17.956;2023-06-24T04:49:44;101546.84;;;16.92;74.23
77011;BME280;65945;53.148;17.956;2023-06-24T04:52:12;101550.31;;;16.99;74.05
77011;BME280;65945;53.148;17.956;2023-06-24T04:54:39;101554.23;;;17.06;73.85
77011;BME280;65945;53.148;17.956;2023-06-24T04:57:09;101557.27;;;17.15;73.80
77011;BME280;65945;53.148;17.956;2023-06-24T04:59:36;101551.31;;;17.23;73.64
77011;BME280;65945;53.148;17.956;2023-06-24T05:02:04;101550.32;;;17.33;73.40
77011;BME280;65945;53.148;17.956;2023-06-24T05:04:31;101552.11;;;17.44;73.14
77011;BME280;65945;53.148;17.956;2023-06-24T05:06:57;101558.09;;;17.54;72.78
77011;BME280;65945;53.148;17.956;2023-06-24T05:09:24;101556.29;;;17.62;72.22
77011;BME280;65945;53.148;17.956;2023-06-24T05:11:51;101561.30;;;17.71;72.05
77011;BME280;65945;53.148;17.956;2023-06-24T05:14:17;101564.69;;;17.79;72.04
77011;BME280;65945;53.148;17.956;2023-06-24T05:16:44;101562.27;;;17.86;71.71
77011;BME280;65945;53.148;17.956;2023-06-24T05:19:11;101559.77;;;17.95;71.82
77011;BME280;65945;53.148;17.956;2023-06-24T05:21:38;101558.11;;;18.03;70.90
77011;BME280;65945;53.148;17.956;2023-06-24T05:24:05;101560.23;;;18.08;70.86
77011;BME280;65945;53.148;17.956;2023-06-24T05:26:31;101561.42;;;18.14;70.50
77011;BME280;65945;53.148;17.956;2023-06-24T05:28:58;101562.70;;;18.20;70.03
77011;BME280;65945;53.148;17.956;2023-06-24T05:31:24;101558.30;;;18.25;70.33
77011;BME280;65945;53.148;17.956;2023-06-24T05:33:51;101560.67;;;18.35;70.23
77011;BME280;65945;53.148;17.956;2023-06-24T05:36:18;101561.20;;;18.44;69.52
77011;BME280;65945;53.148;17.956;2023-06-24T05:38:44;101553.50;;;18.53;69.76
77011;BME280;65945;53.148;17.956;2023-06-24T05:41:11;101548.73;;;18.62;69.34
77011;BME280;65945;53.148;17.956;2023-06-24T05:43:37;101556.48;;;18.68;69.22
77011;BME280;65945;53.148;17.956;2023-06-24T05:46:04;101560.39;;;18.75;69.17
77011;BME280;65945;53.148;17.956;2023-06-24T05:48:31;101563.34;;;18.81;68.20
77011;BME280;65945;53.148;17.956;2023-06-24T05:50:57;101562.09;;;18.76;67.43
77011;BME280;65945;53.148;17.956;2023-06-24T05:53:24;101564.55;;;18.72;68.04
77011;BME280;65945;53.148;17.956;2023-06-24T05:55:51;101563.16;;;18.70;67.98
77011;BME280;65945;53.148;17.956;2023-06-24T05:58:17;101567.86;;;18.66;67.81
77011;BME280;65945;53.148;17.956;2023-06-24T06:00:44;101565.45;;;18.61;68.01
77011;BME280;65945;53.148;17.956;2023-06-24T06:03:10;101568.70;;;18.60;68.33
77011;BME280;65945;53.148;17.956;2023-06-24T06:05:37;101568.70;;;18.63;68.44
77011;BME280;65945;53.148;17.956;2023-06-24T06:08:04;101573.67;;;18.64;68.28
77011;BME280;65945;53.148;17.956;2023-06-24T06:10:30;101570.02;;;18.66;67.99
77011;BME280;65945;53.148;17.956;2023-06-24T06:12:57;101572.43;;;18.65;67.88
77011;BME280;65945;53.148;17.956;2023-06-24T06:15:23;101568.64;;;18.68;68.41
77011;BME280;65945;53.148;17.956;2023-06-24T06:17:51;101568.29;;;18.78;68.16
77011;BME280;65945;53.148;17.956;2023-06-24T06:20:18;101561.27;;;18.88;67.72
77011;BME280;65945;53.148;17.956;2023-06-24T06:22:44;101561.28;;;18.99;67.61
77011;BME280;65945;53.148;17.956;2023-06-24T06:25:11;101564.02;;;19.10;66.75
77011;BME280;65945;53.148;17.956;2023-06-24T06:27:38;101566.58;;;19.15;65.79
77011;BME280;65945;53.148;17.956;2023-06-24T06:30:05;101567.67;;;19.21;66.02
77011;BME280;65945;53.148;17.956;2023-06-24T06:32:32;101565.61;;;19.31;65.95
77011;BME280;65945;53.148;17.956;2023-06-24T06:34:59;101570.34;;;19.43;65.58
77011;BME280;65945;53.148;17.956;2023-06-24T06:37:25;101558.48;;;19.55;65.19
77011;BME280;65945;53.148;17.956;2023-06-24T06:39:52;101563.96;;;19.69;64.01
77011;BME280;65945;53.148;17.956;2023-06-24T06:42:18;101556.90;;;19.80;63.16
77011;BME280;65945;53.148;17.956;2023-06-24T06:44:45;101557.05;;;19.90;63.25
77011;BME280;65945;53.148;17.956;2023-06-24T06:47:12;101550.80;;;20.03;63.99
77011;BME280;65945;53.148;17.956;2023-06-24T06:49:38;101552.64;;;20.19;63.91
77011;BME280;65945;53.148;17.956;2023-06-24T06:52:05;101547.92;;;20.37;63.04
77011;BME280;65945;53.148;17.956;2023-06-24T06:54:32;101554.45;;;20.52;62.34
77011;BME280;65945;53.148;17.956;2023-06-24T06:57:02;101558.14;;;20.62;60.38
77011;BME280;65945;53.148;17.956;2023-06-24T06:59:31;101556.23;;;20.54;59.67
77011;BME280;65945;53.148;17.956;2023-06-24T07:01:58;101558.48;;;20.53;60.33
77011;BME280;65945;53.148;17.956;2023-06-24T07:04:24;101559.19;;;20.51;59.71
77011;BME280;65945;53.148;17.956;2023-06-24T07:06:51;101566.05;;;20.49;59.12
77011;BME280;65945;53.148;17.956;2023-06-24T07:09:19;101561.52;;;20.53;60.50
77011;BME280;65945;53.148;17.956;2023-06-24T07:11:46;101559.52;;;20.65;60.46
77011;BME280;65945;53.148;17.956;2023-06-24T07:14:12;101560.64;;;20.73;58.83
77011;BME280;65945;53.148;17.956;2023-06-24T07:16:39;101559.77;;;20.75;59.10
77011;BME280;65945;53.148;17.956;2023-06-24T07:19:05;101565.73;;;20.82;58.85
77011;BME280;65945;53.148;17.956;2023-06-24T07:21:32;101566.34;;;20.83;58.30
77011;BME280;65945;53.148;17.956;2023-06-24T07:23:59;101568.52;;;20.81;57.96
77011;BME280;65945;53.148;17.956;2023-06-24T07:26:25;101564.21;;;20.87;58.75
77011;BME280;65945;53.148;17.956;2023-06-24T07:28:57;101566.95;;;20.99;57.82
77011;BME280;65945;53.148;17.956;2023-06-24T07:31:27;101569.88;;;21.06;56.54
77011;BME280;65945;53.148;17.956;2023-06-24T07:33:53;101566.95;;;21.03;57.39
77011;BME280;65945;53.148;17.956;2023-06-24T07:36:20;101566.22;;;21.06;57.82
77011;BME280;65945;53.148;17.956;2023-06-24T07:38:47;101565.61;;;21.04;57.15
77011;BME280;65945;53.148;17.956;2023-06-24T07:41:13;101571.60;;;21.03;56.15
77011;BME280;65945;53.148;17.956;2023-06-24T07:43:40;101571.31;;;20.99;56.42
77011;BME280;65945;53.148;17.956;2023-06-24T07:46:06;101573.11;;;20.98;56.40
77011;BME280;65945;53.148;17.956;2023-06-24T07:48:33;101575.75;;;20.94;56.29
77011;BME280;65945;53.148;17.956;2023-06-24T07:51:00;101572.52;;;20.87;56.83
77011;BME280;65945;53.148;17.956;2023-06-24T07:53:27;101568.65;;;20.85;57.29
77011;BME280;65945;53.148;17.956;2023-06-24T07:55:53;101569.42;;;20.86;57.00
77011;BME280;65945;53.148;17.956;2023-06-24T07:58:20;101577.73;;;20.85;58.04
77011;BME280;65945;53.148;17.956;2023-06-24T08:00:46;101581.02;;;20.82;57.49
77011;BME280;65945;53.148;17.956;2023-06-24T08:03:13;101577.30;;;20.80;57.97
77011;BME280;65945;53.148;17.956;2023-06-24T08:05:40;101580.03;;;20.81;57.96
77011;BME280;65945;53.148;17.956;2023-06-24T08:08:07;101585.20;;;20.85;58.30
77011;BME280;65945;53.148;17.956;2023-06-24T08:10:34;101590.92;;;20.92;57.38
77011;BME280;65945;53.148;17.956;2023-06-24T08:13:01;101588.92;;;20.88;55.98
77011;BME280;65945;53.148;17.956;2023-06-24T08:15:28;101589.58;;;20.82;56.15
77011;BME280;65945;53.148;17.956;2023-06-24T08:17:54;101588.30;;;20.73;55.91
77011;BME280;65945;53.148;17.956;2023-06-24T08:20:21;101589.95;;;20.69;56.53
77011;BME280;65945;53.148;17.956;2023-06-24T08:22:49;101590.24;;;20.73;57.08
77011;BME280;65945;53.148;17.956;2023-06-24T08:25:15;101595.23;;;20.72;57.06
77011;BME280;65945;53.148;17.956;2023-06-24T08:27:42;101596.55;;;20.68;56.65
77011;BME280;65945;53.148;17.956;2023-06-24T08:30:13;101600.14;;;20.66;56.33
77011;BME280;65945;53.148;17.956;2023-06-24T08:32:44;101601.80;;;20.77;56.59
77011;BME280;65945;53.148;17.956;2023-06-24T08:35:11;101610.84;;;20.89;56.37
77011;BME280;65945;53.148;17.956;2023-06-24T08:37:37;101614.35;;;21.01;56.21
77011;BME280;65945;53.148;17.956;2023-06-24T08:40:04;101616.10;;;21.09;55.68
77011;BME280;65945;53.148;17.956;2023-06-24T08:42:31;101621.67;;;21.15;55.42
77011;BME280;65945;53.148;17.956;2023-06-24T08:44:58;101614.90;;;21.17;55.22
77011;BME280;65945;53.148;17.956;2023-06-24T08:47:25;101608.60;;;21.16;55.23
77011;BME280;65945;53.148;17.956;2023-06-24T08:49:58;101614.74;;;21.16;55.58
77011;BME280;65945;53.148;17.956;2023-06-24T08:52:34;101610.49;;;21.12;55.83
77011;BME280;65945;53.148;17.956;2023-06-24T08:55:04;101606.86;;;21.10;56.09
77011;BME280;65945;53.148;17.956;2023-06-24T08:57:32;101608.83;;;21.17;57.62
77011;BME280;65945;53.148;17.956;2023-06-24T08:59:59;101607.81;;;21.30;56.89
77011;BME280;65945;53.148;17.956;2023-06-24T09:02:27;101600.67;;;21.37;57.18
77011;BME280;65945;53.148;17.956;2023-06-24T09:04:54;101603.59;;;21.53;56.88
77011;BME280;65945;53.148;17.956;2023-06-24T09:07:27;101607.42;;;21.59;56.48
77011;BME280;65945;53.148;17.956;2023-06-24T09:09:54;101612.15;;;21.61;56.01
77011;BME280;65945;53.148;17.956;2023-06-24T09:12:22;101610.82;;;21.72;56.14
77011;BME280;65945;53.148;17.956;2023-06-24T09:14:49;101606.52;;;21.87;55.73
77011;BME280;65945;53.148;17.956;2023-06-24T09:17:17;101603.01;;;22.03;55.91
77011;BME280;65945;53.148;17.956;2023-06-24T09:19:44;101601.24;;;22.21;55.62
77011;BME280;65945;53.148;17.956;2023-06-24T09:22:10;101600.77;;;22.30;54.27
77011;BME280;65945;53.148;17.956;2023-06-24T09:24:47;101603.11;;;22.35;53.86
77011;BME280;65945;53.148;17.956;2023-06-24T09:27:15;101601.14;;;22.44;54.57
77011;BME280;65945;53.148;17.956;2023-06-24T09:29:43;101600.09;;;22.61;54.91
77011;BME280;65945;53.148;17.956;2023-06-24T09:32:10;101601.09;;;22.80;54.82
77011;BME280;65945;53.148;17.956;2023-06-24T09:34:37;101610.05;;;22.98;53.87
77011;BME280;65945;53.148;17.956;2023-06-24T09:37:05;101604.91;;;23.13;52.66
77011;BME280;65945;53.148;17.956;2023-06-24T09:39:36;101604.95;;;23.12;52.98
77011;BME280;65945;53.148;17.956;2023-06-24T09:42:04;101603.52;;;23.08;53.43
77011;BME280;65945;53.148;17.956;2023-06-24T09:44:33;101601.66;;;23.13;53.45
77011;BME280;65945;53.148;17.956;2023-06-24T09:47:00;101599.02;;;23.22;53.72
77011;BME280;65945;53.148;17.956;2023-06-24T09:49:27;101604.80;;;23.27;53.26
77011;BME280;65945;53.148;17.956;2023-06-24T09:51:58;101604.69;;;23.29;51.71
77011;BME280;65945;53.148;17.956;2023-06-24T09:54:27;101603.95;;;23.21;51.83
77011;BME280;65945;53.148;17.956;2023-06-24T09:56:59;101600.83;;;23.21;51.14
77011;BME280;65945;53.148;17.956;2023-06-24T09:59:27;101597.16;;;23.26;50.94
77011;BME280;65945;53.148;17.956;2023-06-24T10:01:55;101597.34;;;23.37;51.01
77011;BME280;65945;53.148;17.956;2023-06-24T10:04:22;101590.03;;;23.53;51.37
77011;BME280;65945;53.148;17.956;2023-06-24T10:06:50;101590.14;;;23.70;51.49
77011;BME280;65945;53.148;17.956;2023-06-24T10:09:17;101587.64;;;23.84;50.39
77011;BME280;65945;53.148;17.956;2023-06-24T10:11:46;101597.14;;;23.93;49.61
77011;BME280;65945;53.148;17.956;2023-06-24T10:14:14;101592.09;;;23.87;48.81
77011;BME280;65945;53.148;17.956;2023-06-24T10:16:42;101589.05;;;23.83;47.70
77011;BME280;65945;53.148;17.956;2023-06-24T10:19:09;101586.05;;;23.76;48.46
77011;BME280;65945;53.148;17.956;2023-06-24T10:21:59;101583.27;;;23.78;49.25
77011;BME280;65945;53.148;17.956;2023-06-24T10:24:54;101581.66;;;23.94;48.14
77011;BME280;65945;53.148;17.956;2023-06-24T10:27:25;101581.59;;;24.04;46.73
77011;BME280;65945;53.148;17.956;2023-06-24T10:29:54;101576.64;;;24.05;47.08
77011;BME280;65945;53.148;17.956;2023-06-24T10:32:23;101585.89;;;24.11;47.76
77011;BME280;65945;53.148;17.956;2023-06-24T10:34:57;101584.41;;;24.23;47.36
77011;BME280;65945;53.148;17.956;2023-06-24T10:37:30;101581.14;;;24.38;46.89
77011;BME280;65945;53.148;17.956;2023-06-24T10:39:58;101584.36;;;24.46;45.28
77011;BME280;65945;53.148;17.956;2023-06-24T10:42:39;101577.80;;;24.45;45.47
77011;BME280;65945;53.148;17.956;2023-06-24T10:47:37;101573.09;;;24.53;45.75
77011;BME280;65945;53.148;17.956;2023-06-24T10:50:06;101583.12;;;24.63;45.41
77011;BME280;65945;53.148;17.956;2023-06-24T10:52:37;101574.73;;;24.68;45.22
77011;BME280;65945;53.148;17.956;2023-06-24T10:55:05;101578.44;;;24.74;45.06
77011;BME280;65945;53.148;17.956;2023-06-24T10:57:33;101572.80;;;24.82;45.22
77011;BME280;65945;53.148;17.956;2023-06-24T11:00:01;101578.66;;;24.82;43.98
77011;BME280;65945;53.148;17.956;2023-06-24T11:02:29;101569.23;;;24.84;44.08
77011;BME280;65945;53.148;17.956;2023-06-24T11:04:58;101575.91;;;24.93;43.76
77011;BME280;65945;53.148;17.956;2023-06-24T11:07:26;101566.77;;;25.00;43.77
77011;BME280;65945;53.148;17.956;2023-06-24T11:10:05;101572.44;;;25.05;43.28
77011;BME280;65945;53.148;17.956;2023-06-24T11:12:34;101563.52;;;25.11;42.75
77011;BME280;65945;53.148;17.956;2023-06-24T11:15:09;101571.43;;;25.21;43.37
77011;BME280;65945;53.148;17.956;2023-06-24T11:17:37;101561.52;;;25.36;43.06
77011;BME280;65945;53.148;17.956;2023-06-24T11:20:12;101558.55;;;25.49;43.59
77011;BME280;65945;53.148;17.956;2023-06-24T11:22:43;101560.73;;;25.56;42.80
77011;BME280;65945;53.148;17.956;2023-06-24T11:25:17;101556.64;;;25.49;43.34
77011;BME280;65945;53.148;17.956;2023-06-24T11:27:45;101554.97;;;25.48;43.95
77011;BME280;65945;53.148;17.956;2023-06-24T11:30:12;101560.64;;;25.46;43.17
77011;BME280;65945;53.148;17.956;2023-06-24T11:32:41;101559.29;;;25.44;43.58
77011;BME280;65945;53.148;17.956;2023-06-24T11:35:10;101555.94;;;25.47;43.82
77011;BME280;65945;53.148;17.956;2023-06-24T11:37:41;101555.88;;;25.49;44.07
77011;BME280;65945;53.148;17.956;2023-06-24T11:40:09;101557.21;;;25.49;43.89
77011;BME280;65945;53.148;17.956;2023-06-24T11:42:38;101558.67;;;25.44;43.06
77011;BME280;65945;53.148;17.956;2023-06-24T11:45:08;101559.61;;;25.34;42.90
77011;BME280;65945;53.148;17.956;2023-06-24T11:47:37;101555.86;;;25.33;43.80
77011;BME280;65945;53.148;17.956;2023-06-24T11:50:05;101559.06;;;25.38;43.39
77011;BME280;65945;53.148;17.956;2023-06-24T11:55:00;101559.48;;;25.36;43.69
77011;BME280;65945;53.148;17.956;2023-06-24T11:57:58;101554.74;;;25.34;43.50
77011;BME280;65945;53.148;17.956;2023-06-24T12:00:31;101559.74;;;25.35;42.96
77011;BME280;65945;53.148;17.956;2023-06-24T12:03:00;101563.05;;;25.30;42.88
77011;BME280;65945;53.148;17.956;2023-06-24T12:05:32;101557.95;;;25.28;42.96
77011;BME280;65945;53.148;17.956;2023-06-24T12:08:04;101556.00;;;25.34;42.92
77011;BME280;65945;53.148;17.956;2023-06-24T12:10:33;101557.45;;;25.46;42.15
77011;BME280;65945;53.148;17.956;2023-06-24T12:13:01;101555.73;;;25.54;40.62
77011;BME280;65945;53.148;17.956;2023-06-24T12:15:28;101545.98;;;25.59;39.93
77011;BME280;65945;53.148;17.956;2023-06-24T12:17:55;101536.44;;;25.76;41.04
77011;BME280;65945;53.148;17.956;2023-06-24T12:20:25;101530.83;;;25.99;41.26
77011;BME280;65945;53.148;17.956;2023-06-24T12:22:52;101525.09;;;26.16;41.05
77011;BME280;65945;53.148;17.956;2023-06-24T12:25:18;101527.02;;;26.10;39.26
77011;BME280;65945;53.148;17.956;2023-06-24T12:27:45;101534.14;;;26.01;39.79
77011;BME280;65945;53.148;17.956;2023-06-24T12:30:13;101527.94;;;26.08;40.45
77011;BME280;65945;53.148;17.956;2023-06-24T12:32:40;101528.13;;;26.28;39.58
77011;BME280;65945;53.148;17.956;2023-06-24T12:35:08;101535.55;;;26.42;38.06
77011;BME280;65945;53.148;17.956;2023-06-24T12:37:36;101529.32;;;26.46;37.73
77011;BME280;65945;53.148;17.956;2023-06-24T12:40:04;101530.47;;;26.47;38.11
77011;BME280;65945;53.148;17.956;2023-06-24T12:42:31;101529.42;;;26.42;38.20
77011;BME280;65945;53.148;17.956;2023-06-24T12:44:59;101530.72;;;26.43;38.43
77011;BME280;65945;53.148;17.956;2023-06-24T12:47:26;101530.83;;;26.51;38.58
77011;BME280;65945;53.148;17.956;2023-06-24T12:49:53;101535.08;;;26.66;37.80
77011;BME280;65945;53.148;17.956;2023-06-24T12:52:20;101538.06;;;26.74;37.41
77011;BME280;65945;53.148;17.956;2023-06-24T12:54:47;101537.54;;;26.70;37.74
77011;BME280;65945;53.148;17.956;2023-06-24T12:57:14;101539.66;;;26.67;37.59
77011;BME280;65945;53.148;17.956;2023-06-24T12:59:41;101527.46;;;26.78;38.43
77011;BME280;65945;53.148;17.956;2023-06-24T13:02:08;101534.55;;;26.87;37.69